KFKN/FKN METAR and TAF weather

Enter ICAO airport designator
Station Type Date Time Source
KFKN METAR 2022/01/23 12:55 UTC NOAA

KFKN 231255Z AUTO 22003KT 10SM CLR M07/M07 A3009 RMK AO2 T10711075 TSNO


Station Type Date Time Source
KFKN Decoded METAR 2022/01/23 12:55 UTC NOAA

Franklin / J B Rose, VA, United States (KFKN) 36-42N 076-54W
Jan 23, 2022 - 07:55 AM EST / 2022.01.23 1255 UTC
Wind: from the SW (220 degrees) at 3 MPH (3 KT):0
Visibility: 10 mile(s):0
Sky conditions: clear
Temperature: 19.2 F (-7.1 C)
Dew Point: 18.5 F (-7.5 C)
Relative Humidity: 96%
Pressure (altimeter): 30.09 in. Hg (1018 hPa)
ob: KFKN 231255Z AUTO 22003KT 10SM CLR M07/M07 A3009 RMK AO2 T10711075 TSNO
cycle: 13

Station Type Date Time Source
KFKN TAF UTC NOAA

Error!

Example: see airport list